createdAt,value
2023-05-13T00:00:48.148Z,0
2023-05-13T00:01:49.994Z,0
2023-05-13T00:02:50.410Z,0
2023-05-13T00:03:51.147Z,0
2023-05-13T00:04:51.757Z,0
2023-05-13T00:05:52.384Z,0
2023-05-13T00:06:52.966Z,0
2023-05-13T00:07:53.560Z,0
2023-05-13T00:08:54.158Z,0
2023-05-13T00:09:54.753Z,0
2023-05-13T00:10:55.353Z,0
2023-05-13T00:11:55.992Z,0
2023-05-13T00:12:56.589Z,0
2023-05-13T00:13:57.188Z,0
2023-05-13T00:14:57.802Z,0
2023-05-13T00:15:58.526Z,0
2023-05-13T00:16:59.138Z,0
2023-05-13T00:17:59.811Z,0
2023-05-13T00:19:00.472Z,0
2023-05-13T00:20:01.051Z,0
2023-05-13T00:21:01.634Z,0
2023-05-13T00:22:02.229Z,0
2023-05-13T00:23:02.845Z,0
2023-05-13T00:24:03.459Z,0
2023-05-13T00:25:04.031Z,0
2023-05-13T00:26:04.631Z,0
2023-05-13T00:27:05.221Z,0
2023-05-13T00:28:05.842Z,0
2023-05-13T00:29:06.439Z,0
2023-05-13T00:30:07.025Z,0
2023-05-13T00:31:07.687Z,0
2023-05-13T00:32:08.229Z,0
2023-05-13T00:33:08.825Z,0
2023-05-13T00:34:09.450Z,0
2023-05-13T00:35:10.034Z,0
2023-05-13T00:36:10.630Z,0
2023-05-13T00:37:11.259Z,0
2023-05-13T00:38:11.840Z,0
2023-05-13T00:39:12.454Z,0
2023-05-13T00:40:13.072Z,0
2023-05-13T00:41:13.688Z,0
2023-05-13T00:42:14.268Z,0
2023-05-13T00:43:14.857Z,0
2023-05-13T00:44:15.452Z,0
2023-05-13T00:45:16.053Z,0
2023-05-13T00:46:16.716Z,0
2023-05-13T00:47:17.356Z,0
2023-05-13T00:48:17.907Z,0
2023-05-13T00:49:18.504Z,0
2023-05-13T00:50:19.192Z,0
2023-05-13T00:51:19.849Z,0
2023-05-13T00:52:20.440Z,0
2023-05-13T00:53:21.032Z,0
2023-05-13T00:54:21.627Z,0
2023-05-13T00:55:22.241Z,0
2023-05-13T00:56:22.827Z,0
2023-05-13T00:57:23.430Z,0
2023-05-13T00:58:24.047Z,0
2023-05-13T00:59:24.640Z,0
2023-05-13T01:00:25.238Z,0
2023-05-13T01:01:25.856Z,0
2023-05-13T01:02:26.500Z,0
2023-05-13T01:03:27.095Z,0
2023-05-13T01:04:27.669Z,0
2023-05-13T01:05:28.269Z,0
2023-05-13T01:06:28.870Z,0
2023-05-13T01:07:29.477Z,0
2023-05-13T01:08:30.080Z,0
2023-05-13T01:09:30.669Z,0
2023-05-13T01:10:31.259Z,0
2023-05-13T01:11:31.859Z,0
2023-05-13T01:12:32.453Z,0
2023-05-13T01:13:33.048Z,0
2023-05-13T01:14:33.640Z,0
2023-05-13T01:15:34.233Z,0
2023-05-13T01:16:34.864Z,0
2023-05-13T01:17:35.437Z,0
2023-05-13T01:18:36.048Z,0
2023-05-13T01:19:36.619Z,0
2023-05-13T01:20:37.214Z,0
2023-05-13T01:21:37.813Z,0
2023-05-13T01:22:38.403Z,0
2023-05-13T01:23:39.006Z,0
2023-05-13T01:24:39.625Z,0
2023-05-13T01:25:40.201Z,0
2023-05-13T01:26:40.806Z,0
2023-05-13T01:27:41.415Z,0
2023-05-13T01:28:42.014Z,0
2023-05-13T01:29:42.650Z,0
2023-05-13T01:30:43.226Z,0
2023-05-13T01:31:43.872Z,0
2023-05-13T01:32:44.474Z,0
2023-05-13T01:33:45.043Z,0
2023-05-13T01:34:45.646Z,0
2023-05-13T01:35:46.233Z,0
2023-05-13T01:36:46.823Z,0
2023-05-13T01:37:47.421Z,0
2023-05-13T01:38:48.061Z,0
2023-05-13T01:39:48.698Z,0
2023-05-13T01:40:49.293Z,0
2023-05-13T01:41:49.895Z,0
2023-05-13T01:42:50.509Z,0
2023-05-13T01:43:51.121Z,0
2023-05-13T01:44:51.748Z,0
2023-05-13T01:45:52.332Z,0
2023-05-13T01:46:53.015Z,0
2023-05-13T01:47:53.711Z,0
2023-05-13T01:48:54.297Z,0
2023-05-13T01:49:54.894Z,0
2023-05-13T01:50:55.489Z,0
2023-05-13T01:51:56.085Z,0
2023-05-13T01:52:56.677Z,0
2023-05-13T01:53:57.271Z,0
2023-05-13T01:54:57.865Z,0
2023-05-13T01:55:58.459Z,0
2023-05-13T01:56:59.060Z,0
2023-05-13T01:57:59.649Z,0
2023-05-13T01:59:00.240Z,0
2023-05-13T02:00:00.849Z,0
2023-05-13T02:01:01.430Z,0
2023-05-13T02:02:02.111Z,0
2023-05-13T02:03:02.759Z,0
2023-05-13T02:04:03.443Z,0
2023-05-13T02:05:04.063Z,0
2023-05-13T02:06:04.679Z,0
2023-05-13T02:07:05.274Z,0
2023-05-13T02:08:05.867Z,0
2023-05-13T02:09:06.463Z,0
2023-05-13T02:10:07.058Z,0
2023-05-13T02:11:07.651Z,0
2023-05-13T02:12:08.246Z,0
2023-05-13T02:13:08.856Z,0
2023-05-13T02:14:09.437Z,0
2023-05-13T02:15:10.027Z,0
2023-05-13T02:16:10.646Z,0
2023-05-13T02:17:11.327Z,0
2023-05-13T02:18:11.965Z,0
2023-05-13T02:19:12.578Z,0
2023-05-13T02:20:13.140Z,0
2023-05-13T02:21:13.730Z,0
2023-05-13T02:22:14.332Z,0
2023-05-13T02:23:14.942Z,0
2023-05-13T02:24:15.535Z,0
2023-05-13T02:25:16.132Z,0
2023-05-13T02:26:16.719Z,0
2023-05-13T02:27:17.339Z,0
2023-05-13T02:28:17.930Z,0
2023-05-13T02:29:18.522Z,0
2023-05-13T02:30:19.250Z,0
2023-05-13T02:31:19.981Z,0
2023-05-13T02:32:20.519Z,0
2023-05-13T02:33:21.138Z,0
2023-05-13T02:34:21.724Z,0
2023-05-13T02:35:22.336Z,0
2023-05-13T02:36:22.936Z,0
2023-05-13T02:37:23.528Z,0
2023-05-13T02:38:24.120Z,0
2023-05-13T02:39:24.712Z,0
2023-05-13T02:40:25.318Z,0
2023-05-13T02:41:25.905Z,0
2023-05-13T02:42:26.500Z,0
2023-05-13T02:43:27.112Z,0
2023-05-13T02:44:27.707Z,0
2023-05-13T02:45:28.303Z,0
2023-05-13T02:46:28.975Z,0
2023-05-13T02:47:29.629Z,0
2023-05-13T02:48:30.213Z,0
2023-05-13T02:49:30.828Z,0
2023-05-13T02:50:31.428Z,0
2023-05-13T02:51:32.044Z,0
2023-05-13T02:52:32.656Z,0
2023-05-13T02:53:33.249Z,0
2023-05-13T02:54:33.846Z,0
2023-05-13T02:55:34.442Z,0
2023-05-13T02:56:35.042Z,0
2023-05-13T02:57:35.649Z,0
2023-05-13T02:58:36.272Z,0
2023-05-13T02:59:36.861Z,0
2023-05-13T03:00:37.456Z,0
2023-05-13T03:01:38.139Z,0
2023-05-13T03:02:38.842Z,0
2023-05-13T03:03:39.487Z,0
2023-05-13T03:04:40.070Z,0
2023-05-13T03:05:40.665Z,0
2023-05-13T03:06:41.280Z,0
2023-05-13T03:07:41.881Z,0
2023-05-13T03:08:42.478Z,0
2023-05-13T03:09:43.070Z,0
2023-05-13T03:10:43.675Z,0
2023-05-13T03:11:44.262Z,0
2023-05-13T03:12:44.858Z,0
2023-05-13T03:13:45.453Z,0
2023-05-13T03:14:46.052Z,0
2023-05-13T03:15:46.676Z,0
2023-05-13T03:16:47.250Z,0
2023-05-13T03:17:47.966Z,0
2023-05-13T03:18:48.625Z,0
2023-05-13T03:19:49.175Z,5
2023-05-13T03:20:49.797Z,5
2023-05-13T03:21:50.411Z,5
2023-05-13T03:22:51.004Z,5
2023-05-13T03:23:51.602Z,5
2023-05-13T03:24:52.232Z,5
2023-05-13T03:25:52.794Z,5
2023-05-13T03:26:53.401Z,11
2023-05-13T03:27:53.997Z,11
2023-05-13T03:28:54.623Z,11
2023-05-13T03:29:55.209Z,11
2023-05-13T03:30:55.870Z,16
2023-05-13T03:31:56.479Z,16
2023-05-13T03:32:57.128Z,16
2023-05-13T03:33:57.697Z,16
2023-05-13T03:34:58.295Z,22
2023-05-13T03:35:58.892Z,22
2023-05-13T03:36:59.510Z,22
2023-05-13T03:38:00.106Z,28
2023-05-13T03:39:00.737Z,28
2023-05-13T03:40:01.325Z,28
2023-05-13T03:41:01.927Z,33
2023-05-13T03:42:02.516Z,33
2023-05-13T03:43:03.117Z,39
2023-05-13T03:44:03.721Z,39
2023-05-13T03:45:04.315Z,45
2023-05-13T03:46:04.913Z,45
2023-05-13T03:47:05.564Z,45
2023-05-13T03:48:06.185Z,50
2023-05-13T03:49:06.760Z,50
2023-05-13T03:50:07.354Z,56
2023-05-13T03:51:07.955Z,56
2023-05-13T03:52:08.552Z,61
2023-05-13T03:53:09.170Z,61
2023-05-13T03:54:09.769Z,67
2023-05-13T03:55:10.372Z,67
2023-05-13T03:56:10.988Z,73
2023-05-13T03:57:11.592Z,78
2023-05-13T03:58:12.192Z,78
2023-05-13T03:59:12.791Z,84
2023-05-13T04:00:13.390Z,84
2023-05-13T04:01:13.992Z,90
2023-05-13T04:02:14.619Z,90
2023-05-13T04:03:15.216Z,95
2023-05-13T04:04:15.790Z,101
2023-05-13T04:05:16.523Z,106
2023-05-13T04:06:17.170Z,106
2023-05-13T04:07:17.773Z,112
2023-05-13T04:08:18.389Z,118
2023-05-13T04:09:18.992Z,123
2023-05-13T04:10:19.786Z,129
2023-05-13T04:11:20.204Z,129
2023-05-13T04:12:20.822Z,135
2023-05-13T04:13:21.423Z,135
2023-05-13T04:14:22.019Z,140
2023-05-13T04:15:22.630Z,140
2023-05-13T04:16:23.276Z,146
2023-05-13T04:17:23.899Z,146
2023-05-13T04:18:24.599Z,146
2023-05-13T04:19:25.139Z,146
2023-05-13T04:20:25.763Z,151
2023-05-13T04:21:26.362Z,151
2023-05-13T04:22:26.985Z,157
2023-05-13T04:23:27.579Z,163
2023-05-13T04:24:28.178Z,168
2023-05-13T04:25:28.782Z,168
2023-05-13T04:26:29.414Z,174
2023-05-13T04:27:30.023Z,180
2023-05-13T04:28:30.619Z,185
2023-05-13T04:29:31.216Z,191
2023-05-13T04:30:31.817Z,196
2023-05-13T04:31:32.478Z,196
2023-05-13T04:32:33.083Z,202
2023-05-13T04:33:33.669Z,202
2023-05-13T04:34:34.263Z,202
2023-05-13T04:35:34.862Z,202
2023-05-13T04:36:35.462Z,208
2023-05-13T04:37:36.064Z,208
2023-05-13T04:38:36.682Z,208
2023-05-13T04:39:37.282Z,213
2023-05-13T04:40:37.918Z,225
2023-05-13T04:41:38.499Z,219
2023-05-13T04:42:39.101Z,225
2023-05-13T04:43:39.696Z,230
2023-05-13T04:44:40.294Z,230
2023-05-13T04:45:40.901Z,236
2023-05-13T04:46:41.554Z,241
2023-05-13T04:47:42.196Z,241
2023-05-13T04:48:42.811Z,241
2023-05-13T04:49:43.928Z,247
2023-05-13T04:50:45.056Z,258
2023-05-13T04:51:45.722Z,270
2023-05-13T04:52:46.714Z,281
2023-05-13T04:53:47.324Z,298
2023-05-13T04:54:47.943Z,309
2023-05-13T04:55:48.557Z,326
2023-05-13T04:56:49.179Z,348
2023-05-13T04:57:49.740Z,371
2023-05-13T04:58:50.342Z,393
2023-05-13T04:59:50.950Z,405
2023-05-13T05:00:51.542Z,416
2023-05-13T05:01:52.180Z,421
2023-05-13T05:02:52.824Z,427
2023-05-13T05:03:53.428Z,416
2023-05-13T05:04:54.016Z,399
2023-05-13T05:05:54.641Z,388
2023-05-13T05:06:55.246Z,371
2023-05-13T05:07:55.844Z,360
2023-05-13T05:08:56.450Z,354
2023-05-13T05:09:57.062Z,343
2023-05-13T05:10:57.661Z,343
2023-05-13T05:11:58.262Z,337
2023-05-13T05:12:58.883Z,343
2023-05-13T05:13:59.479Z,337
2023-05-13T05:15:00.148Z,337
2023-05-13T05:16:00.733Z,337
2023-05-13T05:17:01.356Z,343
2023-05-13T05:18:02.073Z,343
2023-05-13T05:19:02.620Z,343
2023-05-13T05:20:03.192Z,348
2023-05-13T05:21:03.792Z,348
2023-05-13T05:22:04.388Z,348
2023-05-13T05:23:04.989Z,354
2023-05-13T05:24:05.590Z,354
2023-05-13T05:25:06.186Z,354
2023-05-13T05:26:11.866Z,360
2023-05-13T05:27:08.378Z,365
2023-05-13T05:28:08.980Z,365
2023-05-13T05:29:09.580Z,365
2023-05-13T05:30:10.189Z,371
2023-05-13T05:31:10.844Z,376
2023-05-13T05:32:11.390Z,376
2023-05-13T05:33:12.004Z,382
2023-05-13T05:34:12.616Z,388
2023-05-13T05:35:13.238Z,393
2023-05-13T05:36:13.811Z,399
2023-05-13T05:37:14.411Z,405
2023-05-13T05:38:15.037Z,410
2023-05-13T05:39:15.637Z,410
2023-05-13T05:40:16.259Z,416
2023-05-13T05:41:16.853Z,416
2023-05-13T05:42:17.450Z,421
2023-05-13T05:43:18.051Z,427
2023-05-13T05:44:18.650Z,433
2023-05-13T05:45:19.252Z,444
2023-05-13T05:46:19.909Z,450
2023-05-13T05:47:20.470Z,450
2023-05-13T05:48:21.085Z,455
2023-05-13T05:49:21.707Z,466
2023-05-13T05:50:22.540Z,461
2023-05-13T05:51:23.324Z,472
2023-05-13T05:52:23.924Z,466
2023-05-13T05:53:24.527Z,483
2023-05-13T05:54:25.128Z,500
2023-05-13T05:55:25.746Z,506
2023-05-13T05:56:26.348Z,517
2023-05-13T05:57:26.951Z,528
2023-05-13T05:58:27.550Z,506
2023-05-13T05:59:28.161Z,534
2023-05-13T06:00:28.807Z,562
2023-05-13T06:01:29.386Z,579
2023-05-13T06:02:30.098Z,601
2023-05-13T06:03:30.776Z,618
2023-05-13T06:04:31.421Z,630
2023-05-13T06:05:31.977Z,641
2023-05-13T06:06:32.608Z,641
2023-05-13T06:07:33.198Z,641
2023-05-13T06:08:33.794Z,646
2023-05-13T06:09:34.401Z,641
2023-05-13T06:10:35.006Z,646
2023-05-13T06:11:35.597Z,652
2023-05-13T06:12:36.195Z,663
2023-05-13T06:13:36.799Z,669
2023-05-13T06:14:37.466Z,663
2023-05-13T06:15:38.106Z,669
2023-05-13T06:16:38.687Z,686
2023-05-13T06:17:39.326Z,686
2023-05-13T06:18:39.946Z,691
2023-05-13T06:19:40.518Z,708
2023-05-13T06:20:41.118Z,720
2023-05-13T06:21:41.731Z,725
2023-05-13T06:22:42.326Z,731
2023-05-13T06:23:42.925Z,753
2023-05-13T06:24:43.527Z,753
2023-05-13T06:25:44.125Z,759
2023-05-13T06:26:44.723Z,765
2023-05-13T06:27:45.326Z,781
2023-05-13T06:28:45.928Z,787
2023-05-13T06:29:46.534Z,804
2023-05-13T06:30:47.134Z,804
2023-05-13T06:31:47.813Z,815
2023-05-13T06:33:00.209Z,826
2023-05-13T06:33:50.128Z,826
2023-05-13T06:34:50.660Z,832
2023-05-13T06:35:51.278Z,843
2023-05-13T06:36:51.881Z,849
2023-05-13T06:37:52.497Z,866
2023-05-13T06:38:53.116Z,883
2023-05-13T06:39:53.720Z,900
2023-05-13T06:40:54.355Z,922
2023-05-13T06:41:54.935Z,939
2023-05-13T06:42:55.532Z,967
2023-05-13T06:43:56.136Z,1001
2023-05-13T06:44:56.757Z,1040
2023-05-13T06:45:57.357Z,1063
2023-05-13T06:46:57.985Z,1085
2023-05-13T06:47:58.594Z,1091
2023-05-13T06:48:59.173Z,1102
2023-05-13T06:49:59.771Z,1113
2023-05-13T06:51:00.378Z,1130
2023-05-13T06:52:01.004Z,1147
2023-05-13T06:53:01.597Z,1158
2023-05-13T06:54:02.210Z,1153
2023-05-13T06:55:02.818Z,1158
2023-05-13T06:56:03.403Z,1181
2023-05-13T06:57:04.026Z,1186
2023-05-13T06:58:04.626Z,1198
2023-05-13T06:59:05.230Z,1209
2023-05-13T07:00:05.850Z,1215
2023-05-13T07:01:06.573Z,1231
2023-05-13T07:02:07.125Z,1231
2023-05-13T07:03:08.172Z,1243
2023-05-13T07:04:08.826Z,1254
2023-05-13T07:05:11.156Z,1254
2023-05-13T07:06:10.003Z,1260
2023-05-13T07:07:10.620Z,1254
2023-05-13T07:08:11.233Z,1260
2023-05-13T07:09:11.898Z,1265
2023-05-13T07:10:12.497Z,1260
2023-05-13T07:11:13.038Z,1271
2023-05-13T07:12:13.643Z,1282
2023-05-13T07:13:14.256Z,1293
2023-05-13T07:14:14.852Z,1310
2023-05-13T07:15:15.457Z,1327
2023-05-13T07:16:16.057Z,1355
2023-05-13T07:17:16.675Z,1389
2023-05-13T07:18:17.329Z,1406
2023-05-13T07:19:18.029Z,1434
2023-05-13T07:20:18.623Z,1468
2023-05-13T07:21:19.231Z,1485
2023-05-13T07:22:19.830Z,1490
2023-05-13T07:23:20.434Z,1513
2023-05-13T07:24:21.037Z,1513
2023-05-13T07:25:21.658Z,1524
2023-05-13T07:26:22.245Z,1530
2023-05-13T07:27:22.843Z,1552
2023-05-13T07:28:23.444Z,1558
2023-05-13T07:29:24.885Z,1558
2023-05-13T07:30:25.722Z,1569
2023-05-13T07:31:26.555Z,1591
2023-05-13T07:32:27.459Z,1608
2023-05-13T07:33:28.057Z,1642
2023-05-13T07:34:28.660Z,1681
2023-05-13T07:35:29.263Z,1704
2023-05-13T07:36:29.885Z,1749
2023-05-13T07:37:30.486Z,1800
2023-05-13T07:38:31.114Z,1861
2023-05-13T07:39:31.692Z,1923
2023-05-13T07:40:32.300Z,1980
2023-05-13T07:41:32.926Z,2019
2023-05-13T07:42:33.518Z,2053
2023-05-13T07:43:34.119Z,2075
2023-05-13T07:44:34.723Z,2092
2023-05-13T07:45:35.324Z,2103
2023-05-13T07:46:35.951Z,2103
2023-05-13T07:47:36.566Z,2103
2023-05-13T07:48:37.130Z,2103
2023-05-13T07:49:37.726Z,2098
2023-05-13T07:50:38.377Z,2103
2023-05-13T07:51:38.954Z,2086
2023-05-13T07:52:39.576Z,2058
2023-05-13T07:53:40.177Z,2036
2023-05-13T07:54:40.786Z,2025
2023-05-13T07:55:41.383Z,2030
2023-05-13T07:56:42.052Z,2030
2023-05-13T07:57:42.659Z,2025
2023-05-13T07:58:43.268Z,2013
2023-05-13T07:59:44.945Z,2019
2023-05-13T08:00:45.485Z,2041
2023-05-13T08:01:46.075Z,2103
2023-05-13T08:02:46.710Z,2171
2023-05-13T08:03:47.448Z,2278
2023-05-13T08:04:48.115Z,2373
2023-05-13T08:05:48.693Z,2418
2023-05-13T08:06:49.322Z,2435
2023-05-13T08:07:49.936Z,2452
2023-05-13T08:08:50.543Z,2441
2023-05-13T08:09:51.194Z,2413
2023-05-13T08:10:51.748Z,2373
2023-05-13T08:11:52.370Z,2328
2023-05-13T08:12:52.972Z,2272
2023-05-13T08:13:53.594Z,2278
2023-05-13T08:14:54.201Z,2311
2023-05-13T08:15:54.828Z,2340
2023-05-13T08:16:55.498Z,2373
2023-05-13T08:17:56.104Z,2379
2023-05-13T08:18:56.684Z,2396
2023-05-13T08:19:57.325Z,2430
2023-05-13T08:20:57.879Z,2463
2023-05-13T08:21:58.478Z,2480
2023-05-13T08:22:59.084Z,2480
2023-05-13T08:23:59.687Z,2514
2023-05-13T08:25:00.287Z,2536
2023-05-13T08:26:00.894Z,2514
2023-05-13T08:27:01.493Z,2480
2023-05-13T08:28:02.093Z,2452
2023-05-13T08:29:02.698Z,2463
2023-05-13T08:30:03.298Z,2458
2023-05-13T08:31:03.899Z,2491
2023-05-13T08:32:04.544Z,2531
2023-05-13T08:33:05.192Z,2576
2023-05-13T08:34:05.783Z,2604
2023-05-13T08:35:06.404Z,2626
2023-05-13T08:36:07.010Z,2638
2023-05-13T08:37:07.606Z,2683
2023-05-13T08:38:08.205Z,2716
2023-05-13T08:39:08.853Z,2756
2023-05-13T08:40:09.456Z,2778
2023-05-13T08:41:10.058Z,2840
2023-05-13T08:42:10.667Z,2891
2023-05-13T08:43:11.258Z,2947
2023-05-13T08:44:11.865Z,2986
2023-05-13T08:45:12.469Z,3026
2023-05-13T08:46:13.133Z,3015
2023-05-13T08:47:13.700Z,2998
2023-05-13T08:48:14.319Z,2986
2023-05-13T08:49:14.908Z,2947
2023-05-13T08:50:15.514Z,2896
2023-05-13T08:51:16.111Z,2868
2023-05-13T08:52:16.739Z,2840
2023-05-13T08:53:17.357Z,2823
2023-05-13T08:54:17.941Z,2829
2023-05-13T08:55:18.553Z,2908
2023-05-13T08:56:19.149Z,2970
2023-05-13T08:57:19.752Z,3020
2023-05-13T08:58:20.354Z,3015
2023-05-13T08:59:20.958Z,3020
2023-05-13T09:00:21.939Z,3026
2023-05-13T09:01:22.241Z,3076
2023-05-13T09:02:22.796Z,3099
2023-05-13T09:03:23.400Z,3099
2023-05-13T09:04:24.017Z,3015
2023-05-13T09:05:25.191Z,2958
2023-05-13T09:06:26.020Z,2953
2023-05-13T09:07:26.622Z,3037
2023-05-13T09:08:27.246Z,3166
2023-05-13T09:09:27.851Z,3301
2023-05-13T09:10:28.453Z,3363
2023-05-13T09:11:29.056Z,3330
2023-05-13T09:12:29.678Z,3279
2023-05-13T09:13:30.297Z,3234
2023-05-13T09:14:30.902Z,3200
2023-05-13T09:15:31.505Z,3144
2023-05-13T09:16:32.185Z,3093
2023-05-13T09:17:32.842Z,3071
2023-05-13T09:18:33.529Z,3060
2023-05-13T09:19:34.108Z,3043
2023-05-13T09:20:34.695Z,3003
2023-05-13T09:21:35.304Z,2981
2023-05-13T09:22:35.924Z,2964
2023-05-13T09:23:36.529Z,2992
2023-05-13T09:24:37.152Z,3088
2023-05-13T09:25:37.767Z,3217
2023-05-13T09:26:38.363Z,3307
2023-05-13T09:27:38.979Z,3358
2023-05-13T09:28:39.582Z,3375
2023-05-13T09:29:40.187Z,3403
2023-05-13T09:30:41.082Z,3476
2023-05-13T09:31:41.563Z,3605
2023-05-13T09:32:42.139Z,3774
2023-05-13T09:33:42.737Z,3853
2023-05-13T09:34:43.328Z,3813
2023-05-13T09:35:43.943Z,3746
2023-05-13T09:36:44.561Z,3729
2023-05-13T09:37:45.188Z,3740
2023-05-13T09:38:45.780Z,3757
2023-05-13T09:39:46.380Z,3768
2023-05-13T09:40:46.985Z,3712
2023-05-13T09:41:47.605Z,3594
2023-05-13T09:42:48.211Z,3442
2023-05-13T09:43:48.829Z,3279
2023-05-13T09:44:49.452Z,3127
2023-05-13T09:45:50.079Z,3048
2023-05-13T09:46:50.751Z,3009
2023-05-13T09:47:51.374Z,3031
2023-05-13T09:48:52.077Z,3189
2023-05-13T09:49:52.628Z,3369
2023-05-13T09:50:53.228Z,3481
2023-05-13T09:51:53.830Z,3611
2023-05-13T09:52:54.433Z,3825
2023-05-13T09:53:55.042Z,4021
2023-05-13T09:54:55.661Z,4134
2023-05-13T09:55:56.287Z,4100
2023-05-13T09:56:56.873Z,3971
2023-05-13T09:57:57.481Z,3825
2023-05-13T09:58:58.101Z,3695
2023-05-13T09:59:58.724Z,3600
2023-05-13T10:00:59.385Z,3560
2023-05-13T10:02:00.085Z,3521
2023-05-13T10:03:00.710Z,3420
2023-05-13T10:04:01.296Z,3313
2023-05-13T10:05:01.893Z,3251
2023-05-13T10:06:03.618Z,3268
2023-05-13T10:07:03.131Z,3380
2023-05-13T10:08:03.722Z,3526
2023-05-13T10:09:04.324Z,3673
2023-05-13T10:10:04.934Z,3785
2023-05-13T10:11:05.562Z,3881
2023-05-13T10:12:06.179Z,3976
2023-05-13T10:13:06.778Z,4111
2023-05-13T10:14:07.380Z,4218
2023-05-13T10:15:07.998Z,4348
2023-05-13T10:16:08.615Z,4410
2023-05-13T10:17:09.235Z,4381
2023-05-13T10:18:09.851Z,4201
2023-05-13T10:19:10.590Z,4061
2023-05-13T10:20:11.211Z,3993
2023-05-13T10:21:11.810Z,3954
2023-05-13T10:22:12.414Z,3926
2023-05-13T10:23:13.015Z,3886
2023-05-13T10:24:13.638Z,3813
2023-05-13T10:25:14.247Z,3768
2023-05-13T10:26:14.866Z,3729
2023-05-13T10:27:15.470Z,3684
2023-05-13T10:28:16.068Z,3661
2023-05-13T10:29:16.670Z,3600
2023-05-13T10:30:17.340Z,3560
2023-05-13T10:31:18.025Z,3594
2023-05-13T10:32:18.661Z,3684
2023-05-13T10:33:19.219Z,3802
2023-05-13T10:34:19.827Z,4010
2023-05-13T10:35:20.429Z,4207
2023-05-13T10:36:21.029Z,4432
2023-05-13T10:37:21.651Z,4522
2023-05-13T10:38:22.254Z,4533
2023-05-13T10:39:22.859Z,4426
2023-05-13T10:40:23.708Z,4303
2023-05-13T10:41:24.505Z,4078
2023-05-13T10:42:25.136Z,3909
2023-05-13T10:43:25.754Z,3746
2023-05-13T10:44:26.376Z,3600
2023-05-13T10:45:26.993Z,3476
2023-05-13T10:46:27.664Z,3386
2023-05-13T10:47:28.395Z,3341
2023-05-13T10:48:28.955Z,3358
2023-05-13T10:49:29.505Z,3425
2023-05-13T10:50:30.085Z,3555
2023-05-13T10:51:30.704Z,3723
2023-05-13T10:52:31.352Z,3937
2023-05-13T10:53:31.983Z,4106
2023-05-13T10:54:32.576Z,4269
2023-05-13T10:55:33.179Z,4466
2023-05-13T10:56:33.782Z,4640
2023-05-13T10:57:34.387Z,4876
2023-05-13T10:58:35.012Z,5062
2023-05-13T10:59:35.609Z,5191
2023-05-13T11:00:36.233Z,5203
2023-05-13T11:01:36.867Z,5118
2023-05-13T11:02:37.563Z,4972
2023-05-13T11:03:38.318Z,4764
2023-05-13T11:04:38.853Z,4573
2023-05-13T11:05:39.461Z,4398
2023-05-13T11:06:40.064Z,4235
2023-05-13T11:07:40.674Z,4038
2023-05-13T11:08:41.270Z,3858
2023-05-13T11:09:41.883Z,3718
2023-05-13T11:10:42.482Z,3740
2023-05-13T11:11:43.099Z,3881
2023-05-13T11:12:43.706Z,4117
2023-05-13T11:13:44.338Z,4426
2023-05-13T11:14:44.944Z,4725
2023-05-13T11:15:45.650Z,4955
2023-05-13T11:16:46.416Z,5096
2023-05-13T11:17:47.122Z,5135
2023-05-13T11:18:47.742Z,5101
2023-05-13T11:19:48.371Z,4955
2023-05-13T11:20:52.041Z,4680
2023-05-13T11:21:50.568Z,4550
2023-05-13T11:22:51.184Z,4359
2023-05-13T11:23:51.796Z,4213
2023-05-13T11:24:52.420Z,4111
2023-05-13T11:25:53.026Z,4201
2023-05-13T11:26:53.640Z,4111
2023-05-13T11:27:54.236Z,3993
2023-05-13T11:28:54.864Z,3864
2023-05-13T11:29:55.461Z,3757
2023-05-13T11:30:56.071Z,3751
2023-05-13T11:31:59.265Z,3735
2023-05-13T11:32:57.419Z,3768
2023-05-13T11:33:57.921Z,3768
2023-05-13T11:34:58.511Z,3757
2023-05-13T11:35:59.115Z,3864
2023-05-13T11:36:59.716Z,4117
2023-05-13T11:38:00.639Z,4421
2023-05-13T11:39:01.261Z,4657
2023-05-13T11:40:01.866Z,4809
2023-05-13T11:41:02.467Z,4865
2023-05-13T11:42:03.093Z,4978
2023-05-13T11:43:03.696Z,5040
2023-05-13T11:44:04.301Z,5107
2023-05-13T11:45:04.906Z,5225
2023-05-13T11:46:05.553Z,5321
2023-05-13T11:47:06.266Z,5236
2023-05-13T11:48:06.975Z,5175
2023-05-13T11:49:07.617Z,4978
2023-05-13T11:50:08.208Z,4927
2023-05-13T11:51:08.797Z,4843
2023-05-13T11:52:09.400Z,4781
2023-05-13T11:53:10.002Z,4854
2023-05-13T11:54:10.608Z,4944
2023-05-13T11:55:11.212Z,5113
2023-05-13T11:56:11.822Z,5101
2023-05-13T11:57:12.420Z,5101
2023-05-13T11:58:13.024Z,4989
2023-05-13T11:59:13.638Z,4871
2023-05-13T12:00:14.230Z,4623
2023-05-13T12:01:14.847Z,1198
2023-05-13T12:02:15.509Z,1411
2023-05-13T12:03:16.423Z,1766
2023-05-13T12:04:17.188Z,1625
2023-05-13T12:05:17.807Z,4696
2023-05-13T12:06:18.401Z,4646
2023-05-13T12:07:18.994Z,4590
2023-05-13T12:08:20.227Z,4590
2023-05-13T12:09:21.230Z,4635
2023-05-13T12:10:21.808Z,4826
2023-05-13T12:11:22.414Z,4995
2023-05-13T12:12:23.030Z,4207
2023-05-13T12:13:23.625Z,5006
2023-05-13T12:14:25.246Z,4989
2023-05-13T12:15:26.017Z,4961
2023-05-13T12:16:26.762Z,4792
2023-05-13T12:17:27.340Z,4753
2023-05-13T12:18:27.960Z,4764
2023-05-13T12:19:28.540Z,3498
2023-05-13T12:20:29.155Z,4730
2023-05-13T12:21:29.749Z,1766
2023-05-13T12:22:30.350Z,4443
2023-05-13T12:23:30.957Z,5326
2023-05-13T12:24:31.582Z,5304
2023-05-13T12:25:32.184Z,5062
2023-05-13T12:26:32.790Z,3960
2023-05-13T12:27:33.398Z,5152
2023-05-13T12:28:34.002Z,5045
2023-05-13T12:29:34.605Z,4995
2023-05-13T12:30:35.248Z,4753
2023-05-13T12:31:35.864Z,4719
2023-05-13T12:32:36.473Z,4753
2023-05-13T12:33:37.065Z,4798
2023-05-13T12:34:37.674Z,4809
2023-05-13T12:35:38.277Z,4786
2023-05-13T12:36:39.124Z,4696
2023-05-13T12:37:39.495Z,4545
2023-05-13T12:38:40.106Z,4415
2023-05-13T12:39:40.708Z,4275
2023-05-13T12:40:41.312Z,4111
2023-05-13T12:41:41.913Z,3948
2023-05-13T12:42:42.526Z,3898
2023-05-13T12:43:43.122Z,3791
2023-05-13T12:44:43.726Z,3841
2023-05-13T12:45:45.119Z,3909
2023-05-13T12:46:45.922Z,4100
2023-05-13T12:47:46.595Z,4291
2023-05-13T12:48:47.161Z,4516
2023-05-13T12:49:47.768Z,4685
2023-05-13T12:50:48.373Z,4719
2023-05-13T12:51:48.978Z,4837
2023-05-13T12:52:49.591Z,4938
2023-05-13T12:53:50.189Z,4837
2023-05-13T12:54:50.816Z,5107
2023-05-13T12:55:51.415Z,4410
2023-05-13T12:56:52.022Z,3127
2023-05-13T12:57:52.658Z,5045
2023-05-13T12:58:53.265Z,5236
2023-05-13T12:59:53.871Z,5259
2023-05-13T13:00:54.502Z,5304
2023-05-13T13:01:55.095Z,4021
2023-05-13T13:02:55.752Z,1293
2023-05-13T13:03:56.425Z,1282
2023-05-13T13:04:57.034Z,1350
2023-05-13T13:05:57.656Z,5664
2023-05-13T13:06:58.262Z,2874
2023-05-13T13:07:58.891Z,5630
2023-05-13T13:08:59.569Z,5495
2023-05-13T13:10:00.142Z,5225
2023-05-13T13:11:00.729Z,4404
2023-05-13T13:12:01.340Z,1350
2023-05-13T13:13:01.947Z,1434
2023-05-13T13:14:02.545Z,4809
2023-05-13T13:15:03.154Z,4567
2023-05-13T13:16:03.809Z,1642
2023-05-13T13:17:04.387Z,4635
2023-05-13T13:18:05.025Z,4646
2023-05-13T13:19:05.616Z,4702
2023-05-13T13:20:06.214Z,4680
2023-05-13T13:21:06.830Z,4556
2023-05-13T13:22:07.436Z,2165
2023-05-13T13:23:08.058Z,4455
2023-05-13T13:24:08.697Z,4263
2023-05-13T13:25:09.334Z,4190
2023-05-13T13:26:09.931Z,1293
2023-05-13T13:27:10.539Z,4404
2023-05-13T13:28:11.138Z,4533
2023-05-13T13:29:11.740Z,4573
2023-05-13T13:30:12.343Z,4483
2023-05-13T13:31:12.952Z,4381
2023-05-13T13:32:13.610Z,4348
2023-05-13T13:33:14.233Z,4218
2023-05-13T13:34:14.828Z,4190
2023-05-13T13:35:15.442Z,4156
2023-05-13T13:36:16.062Z,4066
2023-05-13T13:37:16.666Z,3965
2023-05-13T13:38:17.268Z,3858
2023-05-13T13:39:17.877Z,3819
2023-05-13T13:40:18.480Z,3836
2023-05-13T13:41:19.088Z,3971
2023-05-13T13:42:19.697Z,4111
2023-05-13T13:43:20.297Z,4252
2023-05-13T13:44:20.896Z,4398
2023-05-13T13:45:21.527Z,4522
2023-05-13T13:46:22.139Z,4685
2023-05-13T13:47:22.764Z,4680
2023-05-13T13:48:23.334Z,4680
2023-05-13T13:49:24.284Z,4702
2023-05-13T13:50:24.864Z,4578
2023-05-13T13:51:25.458Z,4353
2023-05-13T13:52:26.064Z,4196
2023-05-13T13:53:26.692Z,4021
2023-05-13T13:54:27.314Z,3858
2023-05-13T13:55:27.894Z,3661